Naples, Maine
Current Conditions -  °F | °C
As of 2:54 AM on Tuesday 27 Jan 2015 (Local Time) from KIZG Reporting Station
Overcast Overcast  
Wind Chill:   Ceiling: 6500
Heat Index: 14°   Visibility: 10mi
Dew Point: -9°   Wind: 13mph
Humidity: 35%   Direction: 20°NNE
Pressure: 29.92"   Gusts: 18mph
Location:  43.97°N, 70.61°W
Report Text: KIZG 270754Z AUTO 02011G16KT 10SM OVC065 M10/M23 A2992 RMK AO2 SLP141 T11001228
Loading
Personal Weather Stations






























Interactive Weather Map New forecast layout! Learn more

10-Day Weather Forecast

Advertisements
Track Severe Weather on mobile